Time;durP1;ratioP1;P1;durP2;ratioP2;P2;SDS_P1;SDS_P2;PMS_P1;PMS_P2;Temp;Humidity;BMP_temperature;BMP_pressure;BME280_temperature;BME280_humidity;BME280_pressure;Samples;Min_cycle;Max_cycle;Signal;HPM_P1;HPM_P2
2022/07/22 00:01:00;;;;;;;;;;;;;;;;;;5018085;28;19924;-26
2022/07/22 00:03:26;;;;;;;;;;;;;;;;;;5017875;28;19921;-25
2022/07/22 00:05:52;;;;;;;;;;;;;;;;;;5018076;28;19914;-25
2022/07/22 00:08:18;;;;;;;;;;;;;;;;;;5017966;28;19945;-25
2022/07/22 00:10:44;;;;;;;;;;;;;;;;;;5017854;28;19980;-25
2022/07/22 00:13:10;;;;;;;;;;;;;;;;;;5018004;28;19940;-25
2022/07/22 00:15:36;;;;;;;;;;;;;;;;;;5018420;28;19944;-25
2022/07/22 00:18:02;;;;;;;;;;;;;;;;;;5018403;28;19931;-25
2022/07/22 00:20:28;;;;;;;;;;;;;;;;;;5017855;28;20374;-25
2022/07/22 00:22:54;;;;;;;;;;;;;;;;;;5017689;28;19917;-25
2022/07/22 00:25:20;;;;;;;;;;;;;;;;;;5017687;28;20004;-24
2022/07/22 00:27:46;;;;;;;;;;;;;;;;;;5017671;28;20404;-24
2022/07/22 00:30:12;;;;;;;;;;;;;;;;;;5017854;28;19917;-24
2022/07/22 00:32:38;;;;;;;;;;;;;;;;;;5017483;28;19924;-25
2022/07/22 00:35:04;;;;;;;;;;;;;;;;;;5017482;28;19910;-24
2022/07/22 00:37:30;;;;;;;;;;;;;;;;;;5017464;28;19920;-25
2022/07/22 00:39:56;;;;;;;;;;;;;;;;;;5017416;28;19917;-25
2022/07/22 00:42:22;;;;;;;;;;;;;;;;;;5017356;28;19917;-25
2022/07/22 00:44:48;;;;;;;;;;;;;;;;;;5017588;28;19914;-25
2022/07/22 00:47:14;;;;;;;;;;;;;;;;;;5017321;28;19910;-25
2022/07/22 00:49:40;;;;;;;;;;;;;;;;;;5017550;28;19914;-25
2022/07/22 00:52:06;;;;;;;;;;;;;;;;;;5017283;28;19921;-25
2022/07/22 00:54:32;;;;;;;;;;;;;;;;;;5017131;28;19909;-25
2022/07/22 00:56:58;;;;;;;;;;;;;;;;;;5017101;28;19913;-25
2022/07/22 00:59:24;;;;;;;;;;;;;;;;;;5017664;28;19909;-25
2022/07/22 01:01:50;;;;;;;;;;;;;;;;;;5016938;28;19987;-25
2022/07/22 01:04:16;;;;;;;;;;;;;;;;;;5016815;28;19972;-25
2022/07/22 01:06:44;;;;;;;;;;;;;;;;;;5015786;28;19996;-25
2022/07/22 01:09:10;;;;;;;;;;;;;;;;;;5016932;28;20039;-25
2022/07/22 01:11:36;;;;;;;;;;;;;;;;;;5016772;28;19917;-25
2022/07/22 01:14:02;;;;;;;;;;;;;;;;;;5016751;28;19909;-25
2022/07/22 01:16:28;;;;;;;;;;;;;;;;;;5017280;28;19929;-25
2022/07/22 01:18:54;;;;;;;;;;;;;;;;;;5016753;28;19910;-25
2022/07/22 01:21:20;;;;;;;;;;;;;;;;;;5016938;28;20256;-25
2022/07/22 01:23:46;;;;;;;;;;;;;;;;;;5016541;28;19910;-25
2022/07/22 01:26:12;;;;;;;;;;;;;;;;;;5016836;28;19936;-25
2022/07/22 01:28:38;;;;;;;;;;;;;;;;;;5016543;28;19920;-25
2022/07/22 01:31:04;;;;;;;;;;;;;;;;;;5017020;28;19928;-25
2022/07/22 01:33:30;;;;;;;;;;;;;;;;;;5016898;28;20012;-25
2022/07/22 01:35:56;;;;;;;;;;;;;;;;;;5016682;28;19952;-25
2022/07/22 01:38:22;;;;;;;;;;;;;;;;;;5016639;28;19918;-25
2022/07/22 01:40:48;;;;;;;;;;;;;;;;;;5016204;28;19941;-25
2022/07/22 01:43:17;;;;;;;;;;;;;;;;;;5016198;28;19949;-25
2022/07/22 01:45:43;;;;;;;;;;;;;;;;;;5016255;28;20241;-26
2022/07/22 01:48:09;;;;;;;;;;;;;;;;;;5016493;28;19920;-25
2022/07/22 01:50:35;;;;;;;;;;;;;;;;;;5016080;28;19925;-25
2022/07/22 01:53:01;;;;;;;;;;;;;;;;;;5016045;28;20382;-25
2022/07/22 01:55:27;;;;;;;;;;;;;;;;;;5016353;28;19909;-25
2022/07/22 01:57:53;;;;;;;;;;;;;;;;;;5015997;28;19921;-26
2022/07/22 02:00:19;;;;;;;;;;;;;;;;;;5016022;28;19929;-25
2022/07/22 02:02:45;;;;;;;;;;;;;;;;;;5015610;28;19921;-24
2022/07/22 02:05:11;;;;;;;;;;;;;;;;;;5015898;28;19963;-24
2022/07/22 02:07:37;;;;;;;;;;;;;;;;;;5016062;28;19913;-25
2022/07/22 02:10:03;;;;;;;;;;;;;;;;;;5015844;28;20310;-25
2022/07/22 02:12:29;;;;;;;;;;;;;;;;;;5015644;28;19924;-25
2022/07/22 02:14:55;;;;;;;;;;;;;;;;;;5016013;28;20230;-25
2022/07/22 02:17:21;;;;;;;;;;;;;;;;;;5015884;28;19913;-25
2022/07/22 02:19:47;;;;;;;;;;;;;;;;;;5016008;28;19967;-26
2022/07/22 02:22:13;;;;;;;;;;;;;;;;;;5015816;28;19919;-25
2022/07/22 02:24:39;;;;;;;;;;;;;;;;;;5015593;28;19935;-25
2022/07/22 02:27:05;;;;;;;;;;;;;;;;;;5015870;28;19910;-25
2022/07/22 02:29:31;;;;;;;;;;;;;;;;;;5015477;28;19959;-25
2022/07/22 02:31:57;;;;;;;;;;;;;;;;;;5015353;28;19953;-25
2022/07/22 02:34:23;;;;;;;;;;;;;;;;;;5015553;28;19924;-25
2022/07/22 02:36:49;;;;;;;;;;;;;;;;;;5015502;28;19906;-25
2022/07/22 02:39:15;;;;;;;;;;;;;;;;;;5015769;28;20004;-25
2022/07/22 02:41:41;;;;;;;;;;;;;;;;;;5015412;28;19917;-25
2022/07/22 02:44:07;;;;;;;;;;;;;;;;;;5015674;28;19917;-25
2022/07/22 02:46:33;;;;;;;;;;;;;;;;;;5015934;28;20008;-25
2022/07/22 02:48:59;;;;;;;;;;;;;;;;;;5016169;28;19959;-25
2022/07/22 02:51:25;;;;;;;;;;;;;;;;;;5015492;28;20021;-24
2022/07/22 02:53:51;;;;;;;;;;;;;;;;;;5015282;28;19909;-25
2022/07/22 02:56:19;;;;;;;;;;;;;;;;;;5015797;28;19913;-26
2022/07/22 02:58:46;;;;;;;;;;;;;;;;;;5015284;28;19909;-25
2022/07/22 03:01:12;;;;;;;;;;;;;;;;;;5015214;28;19913;-25
2022/07/22 03:03:38;;;;;;;;;;;;;;;;;;5014925;28;19922;-25
2022/07/22 03:06:04;;;;;;;;;;;;;;;;;;5015763;28;19997;-25
2022/07/22 03:08:30;;;;;;;;;;;;;;;;;;5015219;28;20271;-25
2022/07/22 03:10:56;;;;;;;;;;;;;;;;;;5015597;28;19917;-25
2022/07/22 03:13:22;;;;;;;;;;;;;;;;;;5014999;28;19909;-25
2022/07/22 03:15:48;;;;;;;;;;;;;;;;;;5015094;28;19913;-25
2022/07/22 03:18:14;;;;;;;;;;;;;;;;;;5015353;28;19964;-25
2022/07/22 03:20:40;;;;;;;;;;;;;;;;;;5015113;28;19970;-25
2022/07/22 03:23:06;;;;;;;;;;;;;;;;;;5014984;28;20000;-25
2022/07/22 03:25:32;;;;;;;;;;;;;;;;;;5015007;28;20410;-25
2022/07/22 03:27:58;;;;;;;;;;;;;;;;;;5015013;28;19910;-25
2022/07/22 03:30:24;;;;;;;;;;;;;;;;;;5017773;28;19928;-25
2022/07/22 03:32:50;;;;;;;;;;;;;;;;;;5018651;28;20000;-25
2022/07/22 03:35:16;;;;;;;;;;;;;;;;;;5018914;28;19952;-25
2022/07/22 03:37:42;;;;;;;;;;;;;;;;;;5018643;28;20004;-25
2022/07/22 03:40:08;;;;;;;;;;;;;;;;;;5018546;28;19923;-25
2022/07/22 03:42:34;;;;;;;;;;;;;;;;;;5018451;28;20344;-36
2022/07/22 03:45:00;;;;;;;;;;;;;;;;;;5018471;28;19928;-28
2022/07/22 03:47:26;;;;;;;;;;;;;;;;;;5018924;28;19913;-25
2022/07/22 03:49:52;;;;;;;;;;;;;;;;;;5018255;28;20304;-25
2022/07/22 03:52:18;;;;;;;;;;;;;;;;;;5018081;28;19913;-25
2022/07/22 03:54:44;;;;;;;;;;;;;;;;;;5018766;28;19932;-25
2022/07/22 03:57:10;;;;;;;;;;;;;;;;;;5018087;28;20348;-25
2022/07/22 03:59:36;;;;;;;;;;;;;;;;;;5018224;28;19910;-25
2022/07/22 04:02:02;;;;;;;;;;;;;;;;;;5018261;28;19921;-26
2022/07/22 04:04:28;;;;;;;;;;;;;;;;;;5018631;28;20276;-25
2022/07/22 04:06:54;;;;;;;;;;;;;;;;;;5018015;28;19971;-25
2022/07/22 04:09:20;;;;;;;;;;;;;;;;;;5018223;28;19909;-25
2022/07/22 04:11:46;;;;;;;;;;;;;;;;;;5017852;28;20304;-25
2022/07/22 04:14:12;;;;;;;;;;;;;;;;;;5017718;28;19967;-25
2022/07/22 04:16:38;;;;;;;;;;;;;;;;;;5017819;28;19910;-25
2022/07/22 04:19:04;;;;;;;;;;;;;;;;;;5018240;28;19909;-25
2022/07/22 04:21:30;;;;;;;;;;;;;;;;;;5017592;28;19910;-25
2022/07/22 04:23:56;;;;;;;;;;;;;;;;;;5017596;28;19968;-25
2022/07/22 04:26:22;;;;;;;;;;;;;;;;;;5017601;28;19913;-26
2022/07/22 04:28:48;;;;;;;;;;;;;;;;;;5016596;28;19951;-25
2022/07/22 04:31:14;;;;;;;;;;;;;;;;;;5017121;28;19958;-25
2022/07/22 04:33:40;;;;;;;;;;;;;;;;;;5016035;28;20336;-25
2022/07/22 04:36:06;;;;;;;;;;;;;;;;;;5017060;28;19921;-25
2022/07/22 04:38:32;;;;;;;;;;;;;;;;;;5017365;28;19913;-25
2022/07/22 04:40:58;;;;;;;;;;;;;;;;;;5016614;28;19917;-25
2022/07/22 04:43:24;;;;;;;;;;;;;;;;;;5016734;28;19964;-25
2022/07/22 04:45:50;;;;;;;;;;;;;;;;;;5016910;28;20004;-25
2022/07/22 04:48:16;;;;;;;;;;;;;;;;;;5015801;28;20317;-25
2022/07/22 04:50:42;;;;;;;;;;;;;;;;;;5016743;28;19965;-25
2022/07/22 04:53:08;;;;;;;;;;;;;;;;;;5016992;28;19920;-25
2022/07/22 04:55:34;;;;;;;;;;;;;;;;;;5016813;28;20446;-25
2022/07/22 04:58:00;;;;;;;;;;;;;;;;;;5016635;28;19909;-25
2022/07/22 05:00:26;;;;;;;;;;;;;;;;;;5016584;28;19913;-25
2022/07/22 05:02:52;;;;;;;;;;;;;;;;;;5016549;28;19933;-25
2022/07/22 05:05:18;;;;;;;;;;;;;;;;;;5016514;28;19944;-25
2022/07/22 05:07:43;;;;;;;;;;;;;;;;;;5016499;28;19914;-25
2022/07/22 05:10:09;;;;;;;;;;;;;;;;;;5015469;28;19971;-24
2022/07/22 05:12:35;;;;;;;;;;;;;;;;;;5016454;28;19917;-24
2022/07/22 05:15:01;;;;;;;;;;;;;;;;;;5017142;28;19940;-25
2022/07/22 05:17:27;;;;;;;;;;;;;;;;;;5016311;28;19918;-25
2022/07/22 05:19:53;;;;;;;;;;;;;;;;;;5016283;28;19910;-25
2022/07/22 05:22:19;;;;;;;;;;;;;;;;;;5015275;28;19972;-25
2022/07/22 05:24:45;;;;;;;;;;;;;;;;;;5016516;28;20325;-25
2022/07/22 05:27:11;;;;;;;;;;;;;;;;;;5016225;28;19925;-25
2022/07/22 05:29:37;;;;;;;;;;;;;;;;;;5016249;28;20345;-25
2022/07/22 05:32:03;;;;;;;;;;;;;;;;;;5016417;28;20004;-25
2022/07/22 05:34:29;;;;;;;;;;;;;;;;;;5016401;28;19909;-25
2022/07/22 05:36:55;;;;;;;;;;;;;;;;;;5016202;28;19918;-25
2022/07/22 05:39:21;;;;;;;;;;;;;;;;;;5014938;28;19913;-25
2022/07/22 05:41:47;;;;;;;;;;;;;;;;;;5014985;28;20055;-24
2022/07/22 05:44:13;;;;;;;;;;;;;;;;;;5015872;28;19963;-25
2022/07/22 05:46:39;;;;;;;;;;;;;;;;;;5016113;28;19922;-24
2022/07/22 05:49:05;;;;;;;;;;;;;;;;;;5015967;28;19960;-24
2022/07/22 05:51:31;;;;;;;;;;;;;;;;;;5015023;28;19918;-25
2022/07/22 05:53:58;;;;;;;;;;;;;;;;;;5015632;28;19910;-25
2022/07/22 05:56:24;;;;;;;;;;;;;;;;;;5015479;28;20364;-25
2022/07/22 05:58:50;;;;;;;;;;;;;;;;;;5015642;28;19913;-24
2022/07/22 06:01:15;;;;;;;;;;;;;;;;;;5015455;28;19917;-25
2022/07/22 06:03:41;;;;;;;;;;;;;;;;;;5015466;28;20334;-25
2022/07/22 06:06:08;;;;;;;;;;;;;;;;;;5015659;28;19913;-25
2022/07/22 06:08:34;;;;;;;;;;;;;;;;;;5015319;28;19913;-25
2022/07/22 06:11:00;;;;;;;;;;;;;;;;;;5015765;28;19929;-25
2022/07/22 06:13:26;;;;;;;;;;;;;;;;;;5015364;28;19929;-24
2022/07/22 06:15:52;;;;;;;;;;;;;;;;;;5015692;28;20260;-25
2022/07/22 06:18:18;;;;;;;;;;;;;;;;;;5015195;28;19909;-25
2022/07/22 06:20:44;;;;;;;;;;;;;;;;;;5015629;28;19918;-25
2022/07/22 06:23:10;;;;;;;;;;;;;;;;;;5015126;28;19909;-25
2022/07/22 06:25:36;;;;;;;;;;;;;;;;;;5015181;28;20004;-24
2022/07/22 06:28:02;;;;;;;;;;;;;;;;;;5015202;28;20008;-25
2022/07/22 06:30:28;;;;;;;;;;;;;;;;;;5015019;28;19914;-25
2022/07/22 06:32:54;;;;;;;;;;;;;;;;;;5015093;28;20267;-25
2022/07/22 06:35:20;;;;;;;;;;;;;;;;;;5014044;28;20274;-25
2022/07/22 06:37:46;;;;;;;;;;;;;;;;;;5015593;28;19913;-25
2022/07/22 06:40:12;;;;;;;;;;;;;;;;;;5015205;28;19924;-25
2022/07/22 06:42:38;;;;;;;;;;;;;;;;;;5015418;28;19909;-25
2022/07/22 06:45:04;;;;;;;;;;;;;;;;;;5014809;28;19949;-24
2022/07/22 06:47:31;;;;;;;;;;;;;;;;;;5014933;28;19975;-24
2022/07/22 06:49:57;;;;;;;;;;;;;;;;;;5013913;28;19921;-25
2022/07/22 06:52:23;;;;;;;;;;;;;;;;;;5015008;28;20344;-25
2022/07/22 06:54:49;;;;;;;;;;;;;;;;;;5015167;28;19973;-25
2022/07/22 06:57:16;;;;;;;;;;;;;;;;;;5014855;28;19914;-24
2022/07/22 06:59:42;;;;;;;;;;;;;;;;;;5013801;28;19936;-25
2022/07/22 07:02:08;;;;;;;;;;;;;;;;;;5014655;28;19914;-25
2022/07/22 07:04:34;;;;;;;;;;;;;;;;;;5017183;28;20276;-25
2022/07/22 07:07:00;;;;;;;;;;;;;;;;;;5017662;28;19967;-25
2022/07/22 07:09:26;;;;;;;;;;;;;;;;;;5018872;28;19909;-25
2022/07/22 07:11:52;;;;;;;;;;;;;;;;;;5018655;28;19917;-24
2022/07/22 07:14:18;;;;;;;;;;;;;;;;;;5018769;28;19916;-25
2022/07/22 07:16:44;;;;;;;;;;;;;;;;;;5018491;28;20004;-25
2022/07/22 07:19:10;;;;;;;;;;;;;;;;;;5017440;28;19952;-25
2022/07/22 07:21:36;;;;;;;;;;;;;;;;;;5018716;28;19966;-24
2022/07/22 07:24:02;;;;;;;;;;;;;;;;;;5018577;28;19940;-25
2022/07/22 07:26:28;;;;;;;;;;;;;;;;;;5018348;28;19910;-30
2022/07/22 07:28:54;;;;;;;;;;;;;;;;;;5018202;28;19910;-24
2022/07/22 07:31:20;;;;;;;;;;;;;;;;;;5018406;28;19928;-24
2022/07/22 07:33:46;;;;;;;;;;;;;;;;;;5018386;28;20335;-24
2022/07/22 07:36:12;;;;;;;;;;;;;;;;;;5018154;28;19921;-25
2022/07/22 07:38:38;;;;;;;;;;;;;;;;;;5018227;28;20253;-25
2022/07/22 07:41:04;;;;;;;;;;;;;;;;;;5018020;28;19925;-25
2022/07/22 07:43:30;;;;;;;;;;;;;;;;;;5017932;28;19910;-24
2022/07/22 07:45:56;;;;;;;;;;;;;;;;;;5017945;28;19914;-25
2022/07/22 07:48:22;;;;;;;;;;;;;;;;;;5017955;28;19918;-25
2022/07/22 07:50:48;;;;;;;;;;;;;;;;;;5017853;28;20268;-24
2022/07/22 07:53:14;;;;;;;;;;;;;;;;;;5016743;28;19914;-25
2022/07/22 07:55:40;;;;;;;;;;;;;;;;;;5017770;28;19914;-25
2022/07/22 07:58:06;;;;;;;;;;;;;;;;;;5017830;28;19910;-25
2022/07/22 08:00:33;;;;;;;;;;;;;;;;;;5018008;28;20388;-25
2022/07/22 08:02:59;;;;;;;;;;;;;;;;;;5017603;28;19921;-25
2022/07/22 08:05:25;;;;;;;;;;;;;;;;;;5017979;28;20009;-25
2022/07/22 08:07:51;;;;;;;;;;;;;;;;;;5017678;28;19956;-25
2022/07/22 08:10:17;;;;;;;;;;;;;;;;;;5017599;28;19909;-25
2022/07/22 08:12:43;;;;;;;;;;;;;;;;;;5017640;28;19940;-25
2022/07/22 08:15:10;;;;;;;;;;;;;;;;;;5016784;28;19932;-24
2022/07/22 08:17:36;;;;;;;;;;;;;;;;;;5016436;28;19913;-24
2022/07/22 08:20:02;;;;;;;;;;;;;;;;;;5017406;28;19914;-25
2022/07/22 08:22:28;;;;;;;;;;;;;;;;;;5017163;28;20241;-25
2022/07/22 08:24:54;;;;;;;;;;;;;;;;;;5016149;28;19921;-25
2022/07/22 08:27:20;;;;;;;;;;;;;;;;;;5017464;28;19921;-24
2022/07/22 08:29:46;;;;;;;;;;;;;;;;;;5017149;28;19910;-25
2022/07/22 08:32:12;;;;;;;;;;;;;;;;;;5017498;28;19924;-25
2022/07/22 08:34:38;;;;;;;;;;;;;;;;;;5017161;28;19937;-25
2022/07/22 08:37:04;;;;;;;;;;;;;;;;;;5017835;28;19920;-25
2022/07/22 08:39:30;;;;;;;;;;;;;;;;;;5017130;28;19914;-25
2022/07/22 08:41:56;;;;;;;;;;;;;;;;;;5016833;28;20356;-25
2022/07/22 08:44:22;;;;;;;;;;;;;;;;;;5016897;28;19916;-25
2022/07/22 08:46:48;;;;;;;;;;;;;;;;;;5017455;28;20252;-25
2022/07/22 08:49:14;;;;;;;;;;;;;;;;;;5016896;28;19910;-25
2022/07/22 08:51:39;;;;;;;;;;;;;;;;;;5017303;28;19924;-25
2022/07/22 08:54:05;;;;;;;;;;;;;;;;;;5015693;28;19933;-25
2022/07/22 08:56:31;;;;;;;;;;;;;;;;;;5017216;28;19957;-25
2022/07/22 08:58:57;;;;;;;;;;;;;;;;;;5016829;28;20329;-25
2022/07/22 09:01:23;;;;;;;;;;;;;;;;;;5016979;28;20368;-25
2022/07/22 09:03:50;;;;;;;;;;;;;;;;;;5015586;28;19949;-25
2022/07/22 09:06:15;;;;;;;;;;;;;;;;;;5015806;28;19925;-25
2022/07/22 09:08:41;;;;;;;;;;;;;;;;;;5017362;28;20317;-25
2022/07/22 09:11:07;;;;;;;;;;;;;;;;;;5016696;28;20364;-25
2022/07/22 09:13:33;;;;;;;;;;;;;;;;;;5016906;28;19921;-25
2022/07/22 09:15:59;;;;;;;;;;;;;;;;;;5016639;28;19913;-25
2022/07/22 09:18:25;;;;;;;;;;;;;;;;;;5015693;28;20089;-26
2022/07/22 09:20:51;;;;;;;;;;;;;;;;;;5016555;28;19913;-25
2022/07/22 09:23:18;;;;;;;;;;;;;;;;;;5016450;28;19910;-25
2022/07/22 09:25:44;;;;;;;;;;;;;;;;;;5016412;28;19914;-25
2022/07/22 09:28:10;;;;;;;;;;;;;;;;;;5015521;28;19925;-25
2022/07/22 09:30:36;;;;;;;;;;;;;;;;;;5016970;28;20333;-25
2022/07/22 09:33:02;;;;;;;;;;;;;;;;;;5016537;28;19917;-25
2022/07/22 09:35:28;;;;;;;;;;;;;;;;;;5016546;28;19971;-25
2022/07/22 09:37:54;;;;;;;;;;;;;;;;;;5016294;28;19956;-25
2022/07/22 09:40:20;;;;;;;;;;;;;;;;;;5016544;28;20316;-25
2022/07/22 09:42:46;;;;;;;;;;;;;;;;;;5015132;28;20273;-25
2022/07/22 09:45:12;;;;;;;;;;;;;;;;;;5016420;28;20252;-25
2022/07/22 09:47:46;;;;;;;;;;;;;;;;;;5093446;27;19956;-22
2022/07/22 09:50:12;;;;;;;;;;;;;;;;;;5092473;28;19912;-22
2022/07/22 09:52:38;;;;;;;;;;;;;;;;;;5092676;28;19977;-22
2022/07/22 09:55:04;;;;;;;;;;;;;;;;;;5092678;28;19919;-22
2022/07/22 09:57:30;;;;;;;;;;;;;;;;;;5091445;28;19912;-22
2022/07/22 09:59:56;;;;;;;;;;;;;;;;;;5091218;28;19969;-21
2022/07/22 10:02:22;;;;;;;;;;;;;;;;;;5091960;28;19908;-22
2022/07/22 10:04:48;;;;;;;;;;;;;;;;;;5092617;28;19927;-22
2022/07/22 10:07:14;;;;;;;;;;;;;;;;;;5091976;28;20220;-22
2022/07/22 10:09:40;;;;;;;;;;;;;;;;;;5092437;28;19912;-22
2022/07/22 10:12:06;;;;;;;;;;;;;;;;;;5092296;28;19916;-21
2022/07/22 10:14:32;;;;;;;;;;;;;;;;;;5090920;28;19916;-21
2022/07/22 10:16:58;;;;;;;;;;;;;;;;;;5091043;28;19955;-22
2022/07/22 10:19:24;;;;;;;;;;;;;;;;;;5092174;28;19965;-21
2022/07/22 10:21:50;;;;;;;;;;;;;;;;;;5090872;28;19912;-21
2022/07/22 10:24:23;;;;;;;;;;;;;;;;;;5092341;28;19912;-21
2022/07/22 10:26:49;;;;;;;;;;;;;;;;;;5091938;28;20258;-23
2022/07/22 10:29:15;;;;;;;;;;;;;;;;;;5091786;28;19916;-26
2022/07/22 10:31:41;;;;;;;;;;;;;;;;;;5091744;28;19973;-21
2022/07/22 10:34:07;;;;;;;;;;;;;;;;;;5091677;28;19935;-23
2022/07/22 10:36:33;;;;;;;;;;;;;;;;;;5091672;28;19912;-23
2022/07/22 10:38:59;;;;;;;;;;;;;;;;;;5091807;28;20011;-23
2022/07/22 10:41:25;;;;;;;;;;;;;;;;;;5091799;28;20261;-23
2022/07/22 10:43:51;;;;;;;;;;;;;;;;;;5091730;28;19991;-23
2022/07/22 10:46:17;;;;;;;;;;;;;;;;;;5099637;28;19919;-23
2022/07/22 10:48:43;;;;;;;;;;;;;;;;;;5111826;28;20361;-23
2022/07/22 10:51:09;;;;;;;;;;;;;;;;;;5112348;28;19912;-22
2022/07/22 10:53:35;;;;;;;;;;;;;;;;;;5112005;28;20254;-22
2022/07/22 10:56:01;;;;;;;;;;;;;;;;;;5111576;28;19919;-22
2022/07/22 10:58:27;;;;;;;;;;;;;;;;;;5101948;28;20300;-23
2022/07/22 11:00:53;;;;;;;;;;;;;;;;;;5097988;28;19915;-23
2022/07/22 11:03:19;;;;;;;;;;;;;;;;;;5097037;28;19919;-22
2022/07/22 11:05:45;;;;;;;;;;;;;;;;;;5096972;28;19916;-23
2022/07/22 11:08:11;;;;;;;;;;;;;;;;;;5097870;28;19951;-22
2022/07/22 11:10:37;;;;;;;;;;;;;;;;;;5097987;28;19961;-21
2022/07/22 11:13:03;;;;;;;;;;;;;;;;;;5097751;28;19912;-21
2022/07/22 11:15:29;;;;;;;;;;;;;;;;;;5097837;28;19998;-21
2022/07/22 11:17:55;;;;;;;;;;;;;;;;;;5098285;28;19939;-21
2022/07/22 11:20:21;;;;;;;;;;;;;;;;;;5097967;28;20011;-22
2022/07/22 11:22:47;;;;;;;;;;;;;;;;;;5097593;28;19919;-22
2022/07/22 11:25:13;;;;;;;;;;;;;;;;;;5098160;28;19912;-22
2022/07/22 11:27:39;;;;;;;;;;;;;;;;;;5097361;28;19916;-23
2022/07/22 11:30:06;;;;;;;;;;;;;;;;;;5097400;28;20331;-22
2022/07/22 11:32:32;;;;;;;;;;;;;;;;;;5097250;28;19908;-24
2022/07/22 11:34:58;;;;;;;;;;;;;;;;;;5098165;28;19931;-22
2022/07/22 11:37:24;;;;;;;;;;;;;;;;;;5097515;28;19927;-23
2022/07/22 11:39:50;;;;;;;;;;;;;;;;;;5097360;28;19939;-26
2022/07/22 11:42:16;;;;;;;;;;;;;;;;;;5097003;28;19912;-22
2022/07/22 11:44:42;;;;;;;;;;;;;;;;;;5097395;28;20301;-22
2022/07/22 11:47:08;;;;;;;;;;;;;;;;;;5096961;28;19932;-22
2022/07/22 11:49:35;;;;;;;;;;;;;;;;;;5097338;28;19941;-22
2022/07/22 11:52:01;;;;;;;;;;;;;;;;;;5097218;28;19912;-23
2022/07/22 11:54:27;;;;;;;;;;;;;;;;;;5096910;28;19927;-22
2022/07/22 11:56:53;;;;;;;;;;;;;;;;;;5097116;28;19919;-23
2022/07/22 11:59:19;;;;;;;;;;;;;;;;;;5095945;28;19908;-23
2022/07/22 12:01:45;;;;;;;;;;;;;;;;;;5097217;28;19919;-23
2022/07/22 12:04:11;;;;;;;;;;;;;;;;;;5097290;28;19915;-22
2022/07/22 12:06:38;;;;;;;;;;;;;;;;;;5097225;28;19973;-27
2022/07/22 12:09:04;;;;;;;;;;;;;;;;;;5095969;28;19908;-22
2022/07/22 12:11:30;;;;;;;;;;;;;;;;;;5095592;28;19973;-23
2022/07/22 12:13:56;;;;;;;;;;;;;;;;;;5096590;28;19930;-22
2022/07/22 12:16:22;;;;;;;;;;;;;;;;;;5095532;28;19923;-24
2022/07/22 12:18:48;;;;;;;;;;;;;;;;;;5096531;28;19912;-23
2022/07/22 12:21:14;;;;;;;;;;;;;;;;;;5096787;28;20362;-23
2022/07/22 12:23:40;;;;;;;;;;;;;;;;;;5096322;28;19946;-22
2022/07/22 12:26:06;;;;;;;;;;;;;;;;;;5095300;28;19927;-22
2022/07/22 12:28:32;;;;;;;;;;;;;;;;;;5096295;28;20350;-22
2022/07/22 12:30:58;;;;;;;;;;;;;;;;;;5096217;28;20357;-22
2022/07/22 12:33:24;;;;;;;;;;;;;;;;;;5096092;28;19908;-22
2022/07/22 12:35:50;;;;;;;;;;;;;;;;;;5095246;28;19912;-22
2022/07/22 12:38:16;;;;;;;;;;;;;;;;;;5096063;28;19927;-22
2022/07/22 12:40:42;;;;;;;;;;;;;;;;;;5095919;28;19912;-22
2022/07/22 12:43:08;;;;;;;;;;;;;;;;;;5095837;28;19923;-22
2022/07/22 12:45:34;;;;;;;;;;;;;;;;;;5095563;28;19916;-23
2022/07/22 12:48:00;;;;;;;;;;;;;;;;;;5095934;28;19912;-23
2022/07/22 12:50:26;;;;;;;;;;;;;;;;;;5095807;28;20351;-23
2022/07/22 12:52:52;;;;;;;;;;;;;;;;;;5095940;28;19912;-22
2022/07/22 12:55:18;;;;;;;;;;;;;;;;;;5095719;28;19959;-23
2022/07/22 12:57:44;;;;;;;;;;;;;;;;;;5095980;28;20280;-28
2022/07/22 13:00:11;;;;;;;;;;;;;;;;;;5095957;28;20057;-22
2022/07/22 13:02:37;;;;;;;;;;;;;;;;;;5095491;28;19912;-22
2022/07/22 13:05:03;;;;;;;;;;;;;;;;;;5095881;28;19912;-22
2022/07/22 13:07:29;;;;;;;;;;;;;;;;;;5095007;28;19916;-22
2022/07/22 13:09:55;;;;;;;;;;;;;;;;;;5095050;28;19926;-24
2022/07/22 13:12:21;;;;;;;;;;;;;;;;;;5095394;28;19921;-22
2022/07/22 13:14:47;;;;;;;;;;;;;;;;;;5095037;28;19938;-22
2022/07/22 13:17:13;;;;;;;;;;;;;;;;;;5095466;28;19920;-26
2022/07/22 13:19:39;;;;;;;;;;;;;;;;;;5093973;28;19984;-23
2022/07/22 13:22:05;;;;;;;;;;;;;;;;;;5093467;28;19919;-23
2022/07/22 13:24:31;;;;;;;;;;;;;;;;;;5094799;28;19908;-22
2022/07/22 13:26:57;;;;;;;;;;;;;;;;;;5094759;28;19920;-23
2022/07/22 13:29:23;;;;;;;;;;;;;;;;;;5093708;28;19920;-22
2022/07/22 13:31:49;;;;;;;;;;;;;;;;;;5094862;28;19912;-23
2022/07/22 13:34:15;;;;;;;;;;;;;;;;;;5095256;28;19908;-22
2022/07/22 13:36:41;;;;;;;;;;;;;;;;;;5094793;28;20070;-24
2022/07/22 13:39:07;;;;;;;;;;;;;;;;;;5095034;28;19940;-23
2022/07/22 13:41:33;;;;;;;;;;;;;;;;;;5094753;28;20254;-24
2022/07/22 13:43:59;;;;;;;;;;;;;;;;;;5094601;28;19923;-23
2022/07/22 13:46:25;;;;;;;;;;;;;;;;;;5094531;28;19920;-24
2022/07/22 13:48:51;;;;;;;;;;;;;;;;;;5094607;28;19908;-22
2022/07/22 13:51:17;;;;;;;;;;;;;;;;;;5096832;28;19915;-25
2022/07/22 13:53:43;;;;;;;;;;;;;;;;;;5094722;28;19970;-23
2022/07/22 13:56:09;;;;;;;;;;;;;;;;;;5094570;28;19912;-23
2022/07/22 13:58:35;;;;;;;;;;;;;;;;;;5094439;28;19958;-23
2022/07/22 14:01:01;;;;;;;;;;;;;;;;;;5093687;28;20277;-23
2022/07/22 14:03:28;;;;;;;;;;;;;;;;;;5094410;28;19917;-23
2022/07/22 14:05:54;;;;;;;;;;;;;;;;;;5094666;28;19916;-27
2022/07/22 14:08:20;;;;;;;;;;;;;;;;;;5094373;28;20258;-24
2022/07/22 14:10:46;;;;;;;;;;;;;;;;;;5094744;28;20289;-23
2022/07/22 14:13:12;;;;;;;;;;;;;;;;;;5094429;28;19965;-23
2022/07/22 14:15:38;;;;;;;;;;;;;;;;;;5094527;28;19920;-23
2022/07/22 14:18:06;;;;;;;;;;;;;;;;;;5094224;28;20232;-24
2022/07/22 14:20:32;;;;;;;;;;;;;;;;;;5094589;28;20254;-23
2022/07/22 14:22:58;;;;;;;;;;;;;;;;;;5094275;28;19916;-23
2022/07/22 14:25:24;;;;;;;;;;;;;;;;;;5094591;28;19912;-24
2022/07/22 14:27:50;;;;;;;;;;;;;;;;;;5094686;28;19915;-23
2022/07/22 14:30:16;;;;;;;;;;;;;;;;;;5093288;28;19923;-23
2022/07/22 14:32:42;;;;;;;;;;;;;;;;;;5094776;28;20298;-23
2022/07/22 14:35:08;;;;;;;;;;;;;;;;;;5098326;28;19927;-23
2022/07/22 14:37:34;;;;;;;;;;;;;;;;;;5097074;28;19970;-24
2022/07/22 14:40:00;;;;;;;;;;;;;;;;;;5098226;28;20297;-23
2022/07/22 14:42:26;;;;;;;;;;;;;;;;;;5097825;28;19922;-23
2022/07/22 14:44:52;;;;;;;;;;;;;;;;;;5097216;28;20063;-25
2022/07/22 14:47:18;;;;;;;;;;;;;;;;;;5096653;28;19931;-23
2022/07/22 14:49:44;;;;;;;;;;;;;;;;;;5098294;28;19965;-24
2022/07/22 14:52:10;;;;;;;;;;;;;;;;;;5097874;28;20315;-22
2022/07/22 14:54:36;;;;;;;;;;;;;;;;;;5096801;28;19919;-23
2022/07/22 14:57:02;;;;;;;;;;;;;;;;;;5096742;28;19912;-23
2022/07/22 14:59:28;;;;;;;;;;;;;;;;;;5097589;28;19916;-23
2022/07/22 15:01:54;;;;;;;;;;;;;;;;;;5097522;28;19947;-24
2022/07/22 15:04:20;;;;;;;;;;;;;;;;;;5097562;28;19919;-23
2022/07/22 15:06:46;;;;;;;;;;;;;;;;;;5097663;28;19916;-25
2022/07/22 15:09:13;;;;;;;;;;;;;;;;;;5097714;28;19968;-23
2022/07/22 15:11:39;;;;;;;;;;;;;;;;;;5097366;28;19912;-23
2022/07/22 15:14:05;;;;;;;;;;;;;;;;;;5097280;28;19912;-24
2022/07/22 15:16:31;;;;;;;;;;;;;;;;;;5097762;28;19921;-23
2022/07/22 15:18:57;;;;;;;;;;;;;;;;;;5097228;28;20270;-23
2022/07/22 15:21:23;;;;;;;;;;;;;;;;;;5097203;28;19912;-23
2022/07/22 15:23:49;;;;;;;;;;;;;;;;;;5097219;28;20361;-25
2022/07/22 15:26:15;;;;;;;;;;;;;;;;;;5097134;28;20347;-24
2022/07/22 15:28:42;;;;;;;;;;;;;;;;;;5097578;28;19912;-23
2022/07/22 15:31:08;;;;;;;;;;;;;;;;;;5097315;28;19908;-25
2022/07/22 15:33:34;;;;;;;;;;;;;;;;;;5096940;28;19931;-22
2022/07/22 15:36:00;;;;;;;;;;;;;;;;;;5095924;28;20277;-23
2022/07/22 15:38:26;;;;;;;;;;;;;;;;;;5097070;28;19915;-24
2022/07/22 15:40:52;;;;;;;;;;;;;;;;;;5097369;28;20313;-23
2022/07/22 15:43:18;;;;;;;;;;;;;;;;;;5095741;28;19908;-23
2022/07/22 15:45:44;;;;;;;;;;;;;;;;;;5095651;28;19924;-23
2022/07/22 15:48:10;;;;;;;;;;;;;;;;;;5095748;28;19919;-25
2022/07/22 15:50:36;;;;;;;;;;;;;;;;;;5097333;28;19985;-23
2022/07/22 15:53:02;;;;;;;;;;;;;;;;;;5096630;28;19908;-23
2022/07/22 15:55:29;;;;;;;;;;;;;;;;;;5096870;28;20220;-23
2022/07/22 16:00:40;;;;;;;;;;;;;;;;;;5096423;28;19969;-23
2022/07/22 16:03:06;;;;;;;;;;;;;;;;;;5096400;28;20345;-24
2022/07/22 16:05:32;;;;;;;;;;;;;;;;;;5096798;28;19941;-22
2022/07/22 16:07:58;;;;;;;;;;;;;;;;;;5096201;28;19919;-25
2022/07/22 16:10:24;;;;;;;;;;;;;;;;;;5096297;28;19931;-23
2022/07/22 16:12:50;;;;;;;;;;;;;;;;;;5096243;28;19912;-23
2022/07/22 16:15:16;;;;;;;;;;;;;;;;;;5096114;28;20018;-23
2022/07/22 16:17:42;;;;;;;;;;;;;;;;;;5096089;28;19926;-22
2022/07/22 16:20:09;;;;;;;;;;;;;;;;;;5096328;28;19934;-24
2022/07/22 16:22:35;;;;;;;;;;;;;;;;;;5096474;28;20335;-23
2022/07/22 16:25:01;;;;;;;;;;;;;;;;;;5095977;28;19924;-23
2022/07/22 16:27:27;;;;;;;;;;;;;;;;;;5094868;28;19922;-25
2022/07/22 16:29:53;;;;;;;;;;;;;;;;;;5096528;28;19912;-23
2022/07/22 16:32:19;;;;;;;;;;;;;;;;;;5096043;28;20227;-23
2022/07/22 16:34:45;;;;;;;;;;;;;;;;;;5095828;28;19913;-25
2022/07/22 16:37:10;;;;;;;;;;;;;;;;;;5094820;28;19972;-23
2022/07/22 16:39:36;;;;;;;;;;;;;;;;;;5095772;28;19923;-22